createdAt,value
2016-04-26T00:00:26.982Z,0
2016-04-26T00:02:29.567Z,0
2016-04-26T00:03:07.864Z,0
2016-04-26T00:03:42.164Z,0
2016-04-26T00:05:39.143Z,0
2016-04-26T00:05:51.815Z,0
2016-04-26T00:06:51.723Z,0
2016-04-26T00:07:51.835Z,0
2016-04-26T00:08:51.775Z,0
2016-04-26T00:10:03.887Z,0
2016-04-26T00:10:51.796Z,0
2016-04-26T00:12:48.770Z,0
2016-04-26T00:13:01.348Z,0
2016-04-26T00:14:14.304Z,0
2016-04-26T00:15:01.385Z,0
2016-04-26T00:16:16.419Z,0
2016-04-26T00:17:01.906Z,0
2016-04-26T00:18:01.425Z,0
2016-04-26T00:19:01.428Z,0
2016-04-26T00:20:16.617Z,0
2016-04-26T00:21:07.730Z,0
2016-04-26T00:22:14.200Z,0
2016-04-26T00:23:14.375Z,0
2016-04-26T00:24:20.722Z,0
2016-04-26T00:25:58.493Z,0
2016-04-26T00:26:30.386Z,0
2016-04-26T00:28:14.124Z,0
2016-04-26T00:29:26.922Z,0
2016-04-26T00:30:14.394Z,0
2016-04-26T00:31:14.803Z,0
2016-04-26T00:32:14.744Z,0
2016-04-26T00:33:14.387Z,0
2016-04-26T00:34:14.265Z,0
2016-04-26T00:35:26.985Z,0
2016-04-26T00:36:20.535Z,0
2016-04-26T00:37:27.054Z,0
2016-04-26T00:38:26.401Z,0
2016-04-26T00:39:27.059Z,0
2016-04-26T00:40:33.580Z,0
2016-04-26T00:41:14.346Z,0
2016-04-26T00:42:14.551Z,0
2016-04-26T00:43:20.632Z,0
2016-04-26T00:44:15.650Z,0
2016-04-26T00:45:27.137Z,0
2016-04-26T00:46:15.187Z,0
2016-04-26T00:47:27.158Z,0
2016-04-26T00:48:14.537Z,0
2016-04-26T00:49:33.650Z,0
2016-04-26T00:50:14.478Z,0
2016-04-26T00:51:14.529Z,0
2016-04-26T00:52:14.500Z,0
2016-04-26T00:53:20.784Z,0
2016-04-26T00:54:15.928Z,0
2016-04-26T00:55:15.946Z,0
2016-04-26T00:56:14.542Z,0
2016-04-26T00:57:27.310Z,0
2016-04-26T00:58:14.579Z,0
2016-04-26T00:59:27.363Z,0
2016-04-26T01:00:16.038Z,0
2016-04-26T01:01:33.511Z,0
2016-04-26T01:02:15.011Z,0
2016-04-26T01:03:14.623Z,0
2016-04-26T01:04:14.658Z,0
2016-04-26T01:05:20.942Z,0
2016-04-26T01:06:14.694Z,0
2016-04-26T01:07:27.447Z,0
2016-04-26T01:08:16.106Z,0
2016-04-26T01:09:34.032Z,0
2016-04-26T01:11:18.036Z,0
2016-04-26T01:13:14.837Z,0
2016-04-26T01:13:27.400Z,0
2016-04-26T01:14:27.419Z,0
2016-04-26T01:15:27.484Z,0
2016-04-26T01:16:27.862Z,0
2016-04-26T01:17:33.398Z,0
2016-04-26T01:18:28.898Z,0
2016-04-26T01:19:40.217Z,0
2016-04-26T01:20:27.529Z,0
2016-04-26T01:21:40.268Z,0
2016-04-26T01:22:27.580Z,0
2016-04-26T01:23:27.568Z,0
2016-04-26T01:24:33.823Z,0
2016-04-26T01:25:40.358Z,0
2016-04-26T01:26:46.907Z,0
2016-04-26T01:27:27.766Z,0
2016-04-26T01:28:53.272Z,0
2016-04-26T01:29:27.741Z,0
2016-04-26T01:31:29.386Z,0
2016-04-26T01:32:27.671Z,0
2016-04-26T01:33:30.766Z,0
2016-04-26T01:34:39.663Z,0
2016-04-26T01:35:27.741Z,0
2016-04-26T01:36:40.465Z,0
2016-04-26T01:37:27.746Z,0
2016-04-26T01:38:27.780Z,0
2016-04-26T01:39:27.783Z,0
2016-04-26T01:40:29.193Z,0
2016-04-26T01:41:29.210Z,0
2016-04-26T01:42:27.915Z,0
2016-04-26T01:43:27.826Z,0
2016-04-26T01:44:28.468Z,0
2016-04-26T01:45:40.614Z,0
2016-04-26T01:46:29.317Z,0
2016-04-26T01:47:27.524Z,0
2016-04-26T01:48:28.526Z,0
2016-04-26T01:49:27.919Z,0
2016-04-26T01:50:27.953Z,0
2016-04-26T01:51:27.940Z,0
2016-04-26T01:52:27.958Z,0
2016-04-26T01:53:29.368Z,0
2016-04-26T01:54:27.980Z,0
2016-04-26T01:55:40.736Z,0
2016-04-26T01:56:28.626Z,0
2016-04-26T01:57:28.081Z,0
2016-04-26T01:58:40.775Z,0
2016-04-26T01:59:28.087Z,0
2016-04-26T02:00:53.733Z,0
2016-04-26T02:01:27.858Z,0
2016-04-26T02:02:59.269Z,0
2016-04-26T02:03:28.113Z,0
2016-04-26T02:04:28.100Z,0
2016-04-26T02:05:28.728Z,0
2016-04-26T02:06:28.730Z,0
2016-04-26T02:07:28.781Z,0
2016-04-26T02:08:41.113Z,0
2016-04-26T02:09:28.801Z,0
2016-04-26T02:10:28.227Z,0
2016-04-26T02:11:41.168Z,0
2016-04-26T02:12:28.996Z,0
2016-04-26T02:13:28.234Z,0
2016-04-26T02:14:28.237Z,0
2016-04-26T02:15:28.270Z,0
2016-04-26T02:16:28.664Z,0
2016-04-26T02:17:28.135Z,0
2016-04-26T02:18:28.591Z,0
2016-04-26T02:19:28.953Z,0
2016-04-26T02:20:28.346Z,0
2016-04-26T02:21:47.586Z,0
2016-04-26T02:22:28.226Z,0
2016-04-26T02:23:28.377Z,0
2016-04-26T02:24:28.427Z,0
2016-04-26T02:25:28.383Z,0
2016-04-26T02:26:28.416Z,0
2016-04-26T02:27:28.497Z,0
2016-04-26T02:28:34.547Z,0
2016-04-26T02:29:28.455Z,0
2016-04-26T02:30:28.443Z,0
2016-04-26T02:31:28.601Z,0
2016-04-26T02:32:28.918Z,0
2016-04-26T02:33:34.763Z,0
2016-04-26T02:34:41.221Z,0
2016-04-26T02:35:47.740Z,0
2016-04-26T02:36:28.521Z,0
2016-04-26T02:37:28.587Z,0
2016-04-26T02:38:34.839Z,0
2016-04-26T02:39:28.577Z,0
2016-04-26T02:40:41.332Z,0
2016-04-26T02:41:28.613Z,0
2016-04-26T02:42:54.289Z,0
2016-04-26T02:43:34.930Z,0
2016-04-26T02:44:28.621Z,0
2016-04-26T02:45:41.392Z,0
2016-04-26T02:46:30.111Z,0
2016-04-26T02:47:28.753Z,0
2016-04-26T02:48:41.509Z,0
2016-04-26T02:49:41.433Z,0
2016-04-26T02:50:47.936Z,0
2016-04-26T02:51:28.733Z,0
2016-04-26T02:52:28.800Z,0
2016-04-26T02:53:35.052Z,0
2016-04-26T02:54:28.757Z,0
2016-04-26T02:55:30.183Z,0
2016-04-26T02:56:35.059Z,0
2016-04-26T02:57:28.828Z,0
2016-04-26T02:58:28.815Z,0
2016-04-26T02:59:28.833Z,0
2016-04-26T03:00:35.133Z,0
2016-04-26T03:01:29.636Z,0
2016-04-26T03:02:29.779Z,0
2016-04-26T03:03:29.000Z,0
2016-04-26T03:04:41.615Z,0
2016-04-26T03:05:30.131Z,0
2016-04-26T03:06:28.884Z,0
2016-04-26T03:07:28.995Z,0
2016-04-26T03:08:41.735Z,0
2016-04-26T03:09:29.563Z,0
2016-04-26T03:10:41.725Z,0
2016-04-26T03:11:29.006Z,0
2016-04-26T03:12:48.215Z,0
2016-04-26T03:13:30.418Z,0
2016-04-26T03:14:29.030Z,0
2016-04-26T03:15:29.017Z,0
2016-04-26T03:16:29.128Z,0
2016-04-26T03:17:41.495Z,0
2016-04-26T03:18:36.151Z,0
2016-04-26T03:19:29.076Z,0
2016-04-26T03:20:43.253Z,0
2016-04-26T03:21:28.956Z,0
2016-04-26T03:23:00.430Z,0
2016-04-26T03:23:29.726Z,0
2016-04-26T03:25:44.298Z,0
2016-04-26T03:26:57.066Z,0
2016-04-26T03:27:50.584Z,0
2016-04-26T03:29:10.056Z,0
2016-04-26T03:29:44.964Z,0
2016-04-26T03:30:44.608Z,0
2016-04-26T03:31:47.205Z,0
2016-04-26T03:32:57.957Z,0
2016-04-26T03:33:43.756Z,0
2016-04-26T03:34:58.619Z,0
2016-04-26T03:35:50.808Z,0
2016-04-26T03:37:34.952Z,0
2016-04-26T03:37:53.799Z,0
2016-04-26T03:39:06.802Z,0
2016-04-26T03:39:47.569Z,0
2016-04-26T03:40:47.432Z,0
2016-04-26T03:41:47.716Z,0
2016-04-26T03:42:47.640Z,0
2016-04-26T03:43:47.690Z,0
2016-04-26T03:44:55.754Z,0
2016-04-26T03:45:47.602Z,0
2016-04-26T03:47:06.682Z,0
2016-04-26T03:48:00.450Z,0
2016-04-26T03:49:07.032Z,0
2016-04-26T03:49:47.862Z,0
2016-04-26T03:51:50.462Z,5
2016-04-26T03:52:22.259Z,5
2016-04-26T03:53:22.245Z,5
2016-04-26T03:54:28.732Z,5
2016-04-26T03:56:01.456Z,5
2016-04-26T03:56:39.706Z,5
2016-04-26T03:57:15.053Z,5
2016-04-26T03:58:45.387Z,10
2016-04-26T03:59:14.090Z,10
2016-04-26T04:00:45.391Z,10
2016-04-26T04:01:26.985Z,10
2016-04-26T04:02:15.926Z,10
2016-04-26T04:03:33.397Z,15
2016-04-26T04:04:17.149Z,15
2016-04-26T04:06:42.233Z,15
2016-04-26T04:06:54.814Z,15
2016-04-26T04:07:54.786Z,15
2016-04-26T04:09:01.085Z,10
2016-04-26T04:09:56.348Z,15
2016-04-26T04:11:14.069Z,10
2016-04-26T04:11:54.868Z,15
2016-04-26T04:13:57.484Z,20
2016-04-26T04:14:10.046Z,20
2016-04-26T04:15:10.173Z,25
2016-04-26T04:16:22.660Z,25
2016-04-26T04:17:10.492Z,30
2016-04-26T04:18:22.853Z,30
2016-04-26T04:19:10.122Z,35
2016-04-26T04:20:22.984Z,35
2016-04-26T04:21:10.158Z,35
2016-04-26T04:23:07.133Z,40
2016-04-26T04:23:32.445Z,40
2016-04-26T04:24:19.698Z,45
2016-04-26T04:27:26.097Z,50
2016-04-26T04:28:26.130Z,50
2016-04-26T04:29:32.383Z,50
2016-04-26T04:30:38.135Z,55
2016-04-26T04:31:38.873Z,55
2016-04-26T04:32:26.189Z,60
2016-04-26T04:33:26.597Z,65
2016-04-26T04:34:38.913Z,65
2016-04-26T04:35:38.946Z,70
2016-04-26T04:36:45.420Z,70
2016-04-26T04:37:45.454Z,70
2016-04-26T04:39:28.847Z,70
2016-04-26T04:40:00.429Z,70
2016-04-26T04:40:41.460Z,70
2016-04-26T04:41:54.168Z,75
2016-04-26T04:42:42.105Z,80
2016-04-26T04:44:38.439Z,80
2016-04-26T04:44:54.051Z,80
2016-04-26T04:46:54.306Z,95
2016-04-26T04:47:07.603Z,100
2016-04-26T04:48:19.965Z,110
2016-04-26T04:49:26.062Z,105
2016-04-26T04:50:08.236Z,105
2016-04-26T04:51:32.458Z,110
2016-04-26T04:52:19.539Z,115
2016-04-26T04:53:06.806Z,120
2016-04-26T04:54:06.825Z,130
2016-04-26T04:55:19.578Z,145
2016-04-26T04:56:07.064Z,140
2016-04-26T04:57:56.648Z,140
2016-04-26T04:59:18.917Z,155
2016-04-26T05:00:38.060Z,175
2016-04-26T05:01:19.172Z,170
2016-04-26T05:03:15.521Z,165
2016-04-26T05:03:53.821Z,170
2016-04-26T05:04:28.118Z,170
2016-04-26T05:06:30.841Z,170
2016-04-26T05:07:21.830Z,190
2016-04-26T05:07:43.392Z,200
2016-04-26T05:09:09.132Z,230
2016-04-26T05:09:44.116Z,220
2016-04-26T05:10:56.199Z,225
2016-04-26T05:11:43.465Z,230
2016-04-26T05:12:56.235Z,205
2016-04-26T05:13:43.517Z,165
2016-04-26T05:15:09.179Z,170
2016-04-26T05:15:56.275Z,175
2016-04-26T05:17:15.309Z,215
2016-04-26T05:18:09.342Z,235
2016-04-26T05:19:09.252Z,235
2016-04-26T05:19:43.596Z,245
2016-04-26T05:21:14.882Z,260
2016-04-26T05:21:55.729Z,260
2016-04-26T05:22:43.620Z,255
2016-04-26T05:23:43.762Z,215
2016-04-26T05:24:56.456Z,220
2016-04-26T05:25:50.130Z,265
2016-04-26T05:27:09.398Z,270
2016-04-26T05:27:56.526Z,490
2016-04-26T05:28:43.714Z,225
2016-04-26T05:30:02.922Z,165
2016-04-26T05:30:44.359Z,165
2016-04-26T05:32:41.897Z,170
2016-04-26T05:33:20.008Z,165
2016-04-26T05:33:54.495Z,155
2016-04-26T05:35:14.327Z,170
2016-04-26T05:35:54.516Z,195
2016-04-26T05:36:54.535Z,225
2016-04-26T05:37:54.537Z,245
2016-04-26T05:39:07.415Z,235
2016-04-26T05:39:55.230Z,235
2016-04-26T05:41:51.563Z,235
2016-04-26T05:42:04.157Z,235
2016-04-26T05:43:16.910Z,240
2016-04-26T05:44:16.929Z,250
2016-04-26T05:45:23.509Z,220
2016-04-26T05:46:17.574Z,190
2016-04-26T05:47:04.545Z,165
2016-04-26T05:48:04.876Z,145
2016-04-26T05:49:10.645Z,125
2016-04-26T05:50:17.663Z,115
2016-04-26T05:51:17.604Z,110
2016-04-26T05:52:17.043Z,105
2016-04-26T05:53:04.937Z,100
2016-04-26T05:54:18.503Z,105
2016-04-26T05:55:05.176Z,95
2016-04-26T05:56:07.429Z,90
2016-04-26T05:57:05.780Z,85
2016-04-26T05:58:04.787Z,85
2016-04-26T05:59:04.306Z,85
2016-04-26T06:00:04.465Z,85
2016-04-26T06:01:04.748Z,85
2016-04-26T06:02:05.277Z,90
2016-04-26T06:03:17.169Z,100
2016-04-26T06:04:17.203Z,115
2016-04-26T06:06:01.663Z,135
2016-04-26T06:06:27.038Z,145
2016-04-26T06:09:14.327Z,190
2016-04-26T06:10:33.563Z,190
2016-04-26T06:11:14.972Z,200
2016-04-26T06:12:40.350Z,225
2016-04-26T06:13:21.165Z,225
2016-04-26T06:15:18.437Z,215
2016-04-26T06:15:31.140Z,215
2016-04-26T06:16:31.033Z,200
2016-04-26T06:17:31.474Z,205
2016-04-26T06:18:31.070Z,210
2016-04-26T06:19:31.166Z,145
2016-04-26T06:20:31.106Z,105
2016-04-26T06:21:43.859Z,125
2016-04-26T06:22:31.396Z,140
2016-04-26T06:24:28.152Z,160
2016-04-26T06:25:06.435Z,150
2016-04-26T06:25:40.795Z,180
2016-04-26T06:26:40.766Z,190
2016-04-26T06:27:40.768Z,220
2016-04-26T06:28:47.115Z,300
2016-04-26T06:29:53.527Z,310
2016-04-26T06:30:40.793Z,315
2016-04-26T06:33:16.817Z,350
2016-04-26T06:33:50.209Z,330
2016-04-26T06:34:50.134Z,275
2016-04-26T06:35:56.512Z,230
2016-04-26T06:36:51.733Z,270
2016-04-26T06:38:03.126Z,310
2016-04-26T06:39:03.003Z,320
2016-04-26T06:39:50.304Z,315
2016-04-26T06:41:09.509Z,370
2016-04-26T06:42:10.308Z,310
2016-04-26T06:43:21.781Z,360
2016-04-26T06:44:47.971Z,335
2016-04-26T06:45:00.599Z,340
2016-04-26T06:47:04.447Z,410
2016-04-26T06:47:30.369Z,415
2016-04-26T06:48:17.060Z,825
2016-04-26T06:49:36.249Z,490
2016-04-26T06:50:17.080Z,595
2016-04-26T06:51:36.318Z,1200
2016-04-26T06:52:17.304Z,770
2016-04-26T06:53:42.807Z,705
2016-04-26T06:54:23.404Z,560
2016-04-26T06:56:09.159Z,595
2016-04-26T06:56:23.987Z,595
2016-04-26T06:57:21.631Z,495
2016-04-26T06:58:34.367Z,495
2016-04-26T06:59:22.261Z,535
2016-04-26T07:01:24.734Z,345
2016-04-26T07:02:45.237Z,260
2016-04-26T07:03:27.053Z,225
2016-04-26T07:05:27.496Z,130
2016-04-26T07:05:59.484Z,135
2016-04-26T07:06:40.109Z,155
2016-04-26T07:07:40.267Z,180
2016-04-26T07:08:46.411Z,195
2016-04-26T07:09:46.445Z,220
2016-04-26T07:10:53.122Z,240
2016-04-26T07:11:52.921Z,265
2016-04-26T07:12:59.392Z,305
2016-04-26T07:13:40.345Z,335
2016-04-26T07:14:59.492Z,360
2016-04-26T07:15:53.010Z,370
2016-04-26T07:16:40.400Z,375
2016-04-26T07:18:05.813Z,465
2016-04-26T07:18:41.734Z,470
2016-04-26T07:20:11.646Z,415
2016-04-26T07:20:53.102Z,350
2016-04-26T07:21:40.383Z,330
2016-04-26T07:23:01.018Z,265
2016-04-26T07:23:40.409Z,215
2016-04-26T07:24:56.195Z,240
2016-04-26T07:25:40.460Z,260
2016-04-26T07:26:43.479Z,385
2016-04-26T07:27:41.873Z,365
2016-04-26T07:28:53.206Z,205
2016-04-26T07:29:43.550Z,225
2016-04-26T07:31:31.039Z,180
2016-04-26T07:31:43.633Z,180
2016-04-26T07:32:43.729Z,195
2016-04-26T07:33:44.764Z,220
2016-04-26T07:34:43.750Z,360
2016-04-26T07:35:43.692Z,370
2016-04-26T07:36:45.193Z,250
2016-04-26T07:37:44.321Z,205
2016-04-26T07:38:44.340Z,190
2016-04-26T07:39:43.748Z,180
2016-04-26T07:40:56.503Z,205
2016-04-26T07:41:56.506Z,190
2016-04-26T07:43:09.306Z,195
2016-04-26T07:44:03.027Z,195
2016-04-26T07:45:59.532Z,265
2016-04-26T07:47:18.177Z,190
2016-04-26T07:47:58.944Z,185
2016-04-26T07:49:24.494Z,235
2016-04-26T07:49:59.028Z,245
2016-04-26T07:51:56.237Z,235
2016-04-26T07:52:08.815Z,190
2016-04-26T07:54:11.445Z,185
2016-04-26T07:54:24.023Z,180
2016-04-26T07:55:24.057Z,175
2016-04-26T07:56:24.090Z,170
2016-04-26T07:57:24.079Z,150
2016-04-26T07:58:24.097Z,135
2016-04-26T07:59:36.849Z,130
2016-04-26T08:00:24.134Z,150
2016-04-26T08:01:24.245Z,135
2016-04-26T08:02:24.200Z,130
2016-04-26T08:03:25.188Z,125
2016-04-26T08:04:30.644Z,135
2016-04-26T08:05:24.350Z,145
2016-04-26T08:06:36.961Z,130
2016-04-26T08:07:24.230Z,185
2016-04-26T08:08:36.998Z,250
2016-04-26T08:09:24.501Z,245
2016-04-26T08:10:30.661Z,210
2016-04-26T08:11:24.288Z,195
2016-04-26T08:12:24.369Z,165
2016-04-26T08:13:24.731Z,145
2016-04-26T08:14:37.186Z,125
2016-04-26T08:15:24.564Z,125
2016-04-26T08:16:37.269Z,155
2016-04-26T08:17:24.585Z,180
2016-04-26T08:18:24.432Z,210
2016-04-26T08:19:37.169Z,215
2016-04-26T08:20:24.672Z,185
2016-04-26T08:22:15.005Z,150
2016-04-26T08:22:27.583Z,145
2016-04-26T08:23:40.758Z,155
2016-04-26T08:24:27.635Z,200
2016-04-26T08:25:53.312Z,275
2016-04-26T08:26:29.093Z,270
2016-04-26T08:27:58.974Z,195
2016-04-26T08:28:29.115Z,185
2016-04-26T08:29:29.124Z,190
2016-04-26T08:30:27.911Z,190
2016-04-26T08:31:47.017Z,160
2016-04-26T08:32:40.812Z,145
2016-04-26T08:34:21.948Z,120
2016-04-26T08:34:34.542Z,115
2016-04-26T08:35:53.930Z,100
2016-04-26T08:36:34.836Z,100
2016-04-26T08:37:34.667Z,105
2016-04-26T08:38:47.388Z,95
2016-04-26T08:39:34.703Z,100
2016-04-26T08:40:54.009Z,100
2016-04-26T08:41:34.775Z,95
2016-04-26T08:42:34.642Z,95
2016-04-26T08:43:34.805Z,120
2016-04-26T08:44:34.830Z,115
2016-04-26T08:45:41.276Z,135
2016-04-26T08:46:34.858Z,135
2016-04-26T08:47:34.877Z,140
2016-04-26T08:48:41.648Z,160
2016-04-26T08:49:34.903Z,150
2016-04-26T08:50:47.674Z,220
2016-04-26T08:51:41.380Z,210
2016-04-26T08:52:42.023Z,170
2016-04-26T08:53:34.965Z,205
2016-04-26T08:54:35.000Z,265
2016-04-26T08:55:35.050Z,360
2016-04-26T08:56:34.865Z,315
2016-04-26T08:57:38.337Z,355
2016-04-26T08:58:41.466Z,390
2016-04-26T08:59:47.813Z,400
2016-04-26T09:00:42.034Z,355
2016-04-26T09:01:47.943Z,255
2016-04-26T09:02:43.273Z,190
2016-04-26T09:03:35.199Z,190
2016-04-26T09:05:44.859Z,270
2016-04-26T09:06:50.988Z,245
2016-04-26T09:07:44.990Z,195
2016-04-26T09:08:44.790Z,260
2016-04-26T09:09:44.886Z,305
2016-04-26T09:10:44.811Z,320
2016-04-26T09:11:44.907Z,355
2016-04-26T09:12:51.114Z,405
2016-04-26T09:13:44.897Z,325
2016-04-26T09:14:51.119Z,330
2016-04-26T09:15:44.902Z,270
2016-04-26T09:16:51.170Z,310
2016-04-26T09:17:44.798Z,305
2016-04-26T09:19:05.100Z,285
2016-04-26T09:19:46.475Z,220
2016-04-26T09:20:57.716Z,185
2016-04-26T09:21:48.059Z,235
2016-04-26T09:23:42.018Z,340
2016-04-26T09:23:54.611Z,350
2016-04-26T09:24:54.723Z,385
2016-04-26T09:25:54.617Z,305
2016-04-26T09:26:54.776Z,230
2016-04-26T09:27:55.466Z,200
2016-04-26T09:29:07.424Z,145
2016-04-26T09:30:01.052Z,160
2016-04-26T09:31:13.929Z,235
2016-04-26T09:32:13.917Z,250
2016-04-26T09:32:55.104Z,245
2016-04-26T09:34:53.485Z,175
2016-04-26T09:35:06.050Z,180
2016-04-26T09:36:06.116Z,210
2016-04-26T09:37:06.181Z,275
2016-04-26T09:38:06.120Z,160
2016-04-26T09:39:10.514Z,185
2016-04-26T09:40:12.532Z,305
2016-04-26T09:41:06.238Z,320
2016-04-26T09:42:25.412Z,330
2016-04-26T09:43:06.322Z,340
2016-04-26T09:44:31.934Z,280
2016-04-26T09:45:07.623Z,335
2016-04-26T09:46:37.564Z,465
2016-04-26T09:47:19.019Z,445
2016-04-26T09:48:09.335Z,400
2016-04-26T09:49:20.791Z,415
2016-04-26T09:50:12.606Z,385
2016-04-26T09:51:19.109Z,450
2016-04-26T09:52:06.392Z,425
2016-04-26T09:53:06.395Z,360
2016-04-26T09:54:06.477Z,410
2016-04-26T09:55:19.151Z,385
2016-04-26T09:56:07.043Z,405
2016-04-26T09:57:06.327Z,415
2016-04-26T09:58:18.533Z,370
2016-04-26T09:59:06.474Z,430
2016-04-26T10:00:06.508Z,535
2016-04-26T10:01:07.104Z,490
2016-04-26T10:02:19.279Z,515
2016-04-26T10:03:07.844Z,510
2016-04-26T10:04:09.346Z,475
2016-04-26T10:05:19.459Z,555
2016-04-26T10:06:19.352Z,555
2016-04-26T10:07:25.840Z,660
2016-04-26T10:08:06.623Z,710
2016-04-26T10:09:12.907Z,555
2016-04-26T10:10:13.534Z,610
2016-04-26T10:11:19.413Z,500
2016-04-26T10:12:06.696Z,550
2016-04-26T10:14:10.717Z,440
2016-04-26T10:15:10.704Z,415
2016-04-26T10:16:10.816Z,440
2016-04-26T10:17:17.054Z,565
2016-04-26T10:18:11.650Z,585
2016-04-26T10:19:24.372Z,490
2016-04-26T10:20:12.828Z,400
2016-04-26T10:21:10.892Z,400
2016-04-26T10:22:13.879Z,375
2016-04-26T10:23:23.601Z,400
2016-04-26T10:24:10.870Z,380
2016-04-26T10:25:19.340Z,370
2016-04-26T10:26:10.906Z,365
2016-04-26T10:27:17.237Z,320
2016-04-26T10:28:17.239Z,405
2016-04-26T10:29:10.961Z,380
2016-04-26T10:30:18.385Z,265
2016-04-26T10:31:23.827Z,305
2016-04-26T10:32:11.032Z,285
2016-04-26T10:33:30.082Z,255
2016-04-26T10:34:16.975Z,210
2016-04-26T10:35:12.133Z,215
2016-04-26T10:36:30.292Z,265
2016-04-26T10:37:23.874Z,310
2016-04-26T10:38:23.875Z,295
2016-04-26T10:39:30.410Z,315
2016-04-26T10:40:17.443Z,355
2016-04-26T10:41:30.415Z,380
2016-04-26T10:42:11.245Z,430
2016-04-26T10:43:11.233Z,445
2016-04-26T10:44:11.423Z,470
2016-04-26T10:45:17.535Z,510
2016-04-26T10:46:17.569Z,505
2016-04-26T10:47:30.525Z,455
2016-04-26T10:48:14.262Z,450
2016-04-26T10:49:40.420Z,485
2016-04-26T10:50:11.393Z,500
2016-04-26T10:52:12.928Z,555
2016-04-26T10:53:11.416Z,580
2016-04-26T10:54:19.466Z,630
2016-04-26T10:55:11.530Z,655
2016-04-26T10:56:14.487Z,670
2016-04-26T10:57:11.567Z,680
2016-04-26T10:58:24.258Z,650
2016-04-26T10:59:13.354Z,640
2016-04-26T11:00:11.575Z,625
2016-04-26T11:01:30.750Z,615
2016-04-26T11:02:12.238Z,595
2016-04-26T11:03:37.241Z,645
2016-04-26T11:04:14.086Z,655
2016-04-26T11:05:43.167Z,745
2016-04-26T11:06:11.702Z,750
2016-04-26T11:08:14.285Z,710
2016-04-26T11:08:26.847Z,705
2016-04-26T11:09:26.929Z,665
2016-04-26T11:10:33.243Z,660
2016-04-26T11:11:39.652Z,670
2016-04-26T11:12:39.686Z,680
2016-04-26T11:13:46.299Z,735
2016-04-26T11:14:26.957Z,705
2016-04-26T11:15:27.023Z,645
2016-04-26T11:16:27.634Z,525
2016-04-26T11:17:27.668Z,485
2016-04-26T11:18:28.093Z,430
2016-04-26T11:19:27.783Z,435
2016-04-26T11:20:46.286Z,535
2016-04-26T11:21:34.789Z,520
2016-04-26T11:22:46.322Z,570
2016-04-26T11:24:18.500Z,580
2016-04-26T11:24:50.312Z,510
2016-04-26T11:25:56.847Z,435
2016-04-26T11:28:00.039Z,360
2016-04-26T11:28:40.901Z,380
2016-04-26T11:30:00.045Z,340
2016-04-26T11:30:41.516Z,290
2016-04-26T11:31:40.863Z,265
2016-04-26T11:32:40.896Z,295
2016-04-26T11:33:49.524Z,285
2016-04-26T11:34:53.496Z,285
2016-04-26T11:35:42.374Z,275
2016-04-26T11:37:00.204Z,270
2016-04-26T11:37:42.503Z,275
2016-04-26T11:39:38.009Z,270
2016-04-26T11:39:50.743Z,260
2016-04-26T11:40:50.574Z,225
2016-04-26T11:41:52.171Z,215
2016-04-26T11:42:57.079Z,205
2016-04-26T11:43:50.675Z,200
2016-04-26T11:45:06.053Z,205
2016-04-26T11:45:50.697Z,230
2016-04-26T11:47:09.968Z,245
2016-04-26T11:48:04.765Z,225
2016-04-26T11:49:17.067Z,180
2016-04-26T11:49:50.801Z,165
2016-04-26T11:51:22.322Z,145
2016-04-26T11:51:51.634Z,150
2016-04-26T11:53:22.375Z,145
2016-04-26T11:54:03.734Z,125
2016-04-26T11:54:50.987Z,115
2016-04-26T11:56:16.773Z,125
2016-04-26T11:56:57.320Z,135
2016-04-26T11:59:31.922Z,235
2016-04-26T12:00:25.455Z,275
2016-04-26T12:01:06.346Z,300
2016-04-26T12:02:06.521Z,325
2016-04-26T12:03:06.492Z,370
2016-04-26T12:04:07.183Z,400
2016-04-26T12:05:06.404Z,415
2016-04-26T12:06:07.813Z,435
2016-04-26T12:07:06.582Z,460
2016-04-26T12:08:06.381Z,480
2016-04-26T12:09:07.837Z,490
2016-04-26T12:10:12.717Z,485
2016-04-26T12:11:06.451Z,485
2016-04-26T12:12:07.892Z,465
2016-04-26T12:13:12.787Z,440
2016-04-26T12:14:19.337Z,385
2016-04-26T12:15:06.524Z,335
2016-04-26T12:16:27.170Z,300
2016-04-26T12:17:06.561Z,290
2016-04-26T12:18:06.658Z,265
2016-04-26T12:19:06.364Z,255
2016-04-26T12:20:12.884Z,255
2016-04-26T12:21:12.918Z,250
2016-04-26T12:22:06.668Z,230
2016-04-26T12:23:06.670Z,220
2016-04-26T12:24:12.973Z,240
2016-04-26T12:25:19.554Z,280
2016-04-26T12:26:05.992Z,300
2016-04-26T12:27:09.919Z,335
2016-04-26T12:28:06.778Z,375
2016-04-26T12:29:07.453Z,460
2016-04-26T12:30:07.472Z,460
2016-04-26T12:31:06.927Z,430
2016-04-26T12:32:06.836Z,420
2016-04-26T12:33:06.855Z,415
2016-04-26T12:34:08.466Z,425
2016-04-26T12:35:06.875Z,430
2016-04-26T12:36:07.502Z,430
2016-04-26T12:37:19.602Z,430
2016-04-26T12:38:19.746Z,430
2016-04-26T12:39:25.546Z,430
2016-04-26T12:40:07.046Z,430
2016-04-26T12:41:26.191Z,415
2016-04-26T12:42:19.757Z,410
2016-04-26T12:43:07.038Z,400
2016-04-26T12:44:26.262Z,395
2016-04-26T12:45:07.699Z,390
2016-04-26T12:46:07.686Z,385
2016-04-26T12:47:07.096Z,385
2016-04-26T12:48:19.976Z,390
2016-04-26T12:49:20.525Z,395
2016-04-26T12:50:07.150Z,395
2016-04-26T12:51:32.859Z,410
2016-04-26T12:52:07.859Z,410
2016-04-26T12:53:07.362Z,420
2016-04-26T12:54:07.223Z,435
2016-04-26T12:55:07.382Z,450
2016-04-26T12:56:07.479Z,450
2016-04-26T12:57:20.031Z,455
2016-04-26T12:58:07.312Z,475
2016-04-26T12:59:07.347Z,485
2016-04-26T13:00:07.365Z,460
2016-04-26T13:01:07.367Z,480
2016-04-26T13:02:07.370Z,490
2016-04-26T13:03:07.420Z,535
2016-04-26T13:04:13.594Z,485
2016-04-26T13:05:13.722Z,480
2016-04-26T13:06:20.211Z,500
2016-04-26T13:07:26.714Z,520
2016-04-26T13:08:07.605Z,540
2016-04-26T13:10:10.736Z,510
2016-04-26T13:10:23.316Z,500
2016-04-26T13:11:23.365Z,475
2016-04-26T13:12:29.649Z,485
2016-04-26T13:13:23.700Z,485
2016-04-26T13:14:23.389Z,450
2016-04-26T13:15:29.704Z,420
2016-04-26T13:16:23.441Z,440
2016-04-26T13:17:23.496Z,500
2016-04-26T13:18:23.483Z,495
2016-04-26T13:19:29.471Z,480
2016-04-26T13:20:36.254Z,465
2016-04-26T13:21:36.272Z,455
2016-04-26T13:22:42.807Z,485
2016-04-26T13:23:23.590Z,500
2016-04-26T13:25:15.531Z,495
2016-04-26T13:25:28.159Z,490
2016-04-26T13:26:28.130Z,485
2016-04-26T13:27:28.726Z,455
2016-04-26T13:28:28.150Z,430
2016-04-26T13:29:28.200Z,440
2016-04-26T13:30:28.219Z,460
2016-04-26T13:31:40.956Z,455
2016-04-26T13:32:34.536Z,470
2016-04-26T13:33:41.024Z,475
2016-04-26T13:34:29.697Z,485
2016-04-26T13:35:53.982Z,520
2016-04-26T13:36:41.095Z,520
2016-04-26T13:37:59.675Z,530
2016-04-26T13:38:36.038Z,535
2016-04-26T13:40:43.652Z,535
2016-04-26T13:41:43.655Z,525
2016-04-26T13:42:50.048Z,515
2016-04-26T13:43:50.051Z,530
2016-04-26T13:44:56.475Z,530
2016-04-26T13:46:02.977Z,510
2016-04-26T13:46:45.184Z,475
2016-04-26T13:48:59.454Z,390
2016-04-26T13:50:00.660Z,375
2016-04-26T13:51:01.570Z,360
2016-04-26T13:51:59.634Z,320
2016-04-26T13:53:12.372Z,290
2016-04-26T13:53:59.093Z,285
2016-04-26T13:54:59.112Z,275
2016-04-26T13:55:59.115Z,285
2016-04-26T13:56:59.726Z,290
2016-04-26T13:58:11.870Z,305
2016-04-26T13:58:59.200Z,325
2016-04-26T14:00:24.909Z,335
2016-04-26T14:00:59.362Z,335
2016-04-26T14:02:30.570Z,330
2016-04-26T14:03:11.992Z,330
2016-04-26T14:03:59.183Z,330
2016-04-26T14:05:56.156Z,320
2016-04-26T14:07:19.300Z,315
2016-04-26T14:07:31.881Z,310
2016-04-26T14:09:34.496Z,260
2016-04-26T14:10:12.730Z,245
2016-04-26T14:10:47.108Z,230
2016-04-26T14:12:12.797Z,220
2016-04-26T14:12:47.739Z,225
2016-04-26T14:14:59.962Z,270
2016-04-26T14:15:47.168Z,300
2016-04-26T14:17:06.468Z,325
2016-04-26T14:17:47.845Z,330
2016-04-26T14:18:46.771Z,330
2016-04-26T14:19:49.038Z,325
2016-04-26T14:21:00.010Z,310
2016-04-26T14:21:50.949Z,300
2016-04-26T14:23:13.004Z,290
2016-04-26T14:24:00.273Z,290
2016-04-26T14:25:13.057Z,305
2016-04-26T14:26:00.747Z,325
2016-04-26T14:27:13.125Z,345
2016-04-26T14:27:47.674Z,370
2016-04-26T14:28:47.459Z,395
2016-04-26T14:29:47.522Z,410
2016-04-26T14:31:00.322Z,445
2016-04-26T14:31:53.778Z,465
2016-04-26T14:33:00.875Z,480
2016-04-26T14:33:53.783Z,495